Stuart, OK (74570)

2:37 AM CDT on September 21, 2014 (GMT -0500)
Horntown OK | Change Station
CLOSE
Current Station
Personal Weather Station
Location: Holdenville, OK
Elevation: 827 ft
Nearby Weather Stations

Elev 827 ft 35.08 °N, 96.26 °W | Updated 15 minutes ago

Partly Cloudy
Partly Cloudy
69.4 °F
Feels Like 69.4 °F
N
2.7
Wind Variable Wind from South

Today
High -- | Low -- °F
--% Chance of Precip.
Yesterday
High -- | Low -- °F
Precip. -- in
7:11 AM 7:22 PM
Waning Crescent, 8% visible
Pressure 30.05 in
Visibility 4.0 miles
Clouds Scattered Clouds 6500 ft
Mostly Cloudy 9000 ft
Mostly Cloudy 11000 ft
Dew Point 68 °F
Humidity 97%
Rainfall 0.00 in
Snow Depth Not available.
UV 0 out of 12
Pollen 9.50 out of 12
Air Quality Not available.
Flu Activity Not available.
METAR KMLC 210653Z AUTO 00000KT 4SM BR SCT065 BKN090 BKN110 20/19 A3005

More Conditions Fewer Conditions

Pressure 30.05 in
Visibility 4.0 miles
Clouds Scattered Clouds 6500 ft
Mostly Cloudy 9000 ft
Mostly Cloudy 11000 ft
Dew Point 68 °F
Humidity 97%
Rainfall 0.00 in
Snow Depth Not available.
UV 0 out of 12
Pollen 9.50 out of 12
Air Quality Not available.
Flu Activity Not available.
METAR KMLC 210653Z AUTO 00000KT 4SM BR SCT065 BKN090 BKN110 20/19 A3005

More Conditions Fewer Conditions

10-Day Weather Forecast

Almanac

Astronomy

Sep. 21, 2014 Rise Set
Actual Time 7:11 AM CDT 7:22 PM CDT
Civil Twilight 6:46 AM CDT 7:48 PM CDT
Nautical Twilight 6:17 AM CDT 8:17 PM CDT
Astronomical Twilight 5:47 AM CDT 8:47 PM CDT
Moon 4:51 AM CDT 5:56 PM CDT
Length of Visible Light 13h 01m
Length of Day
12h 10m
Tomorrow will be 2m 10s shorter.
Waning Crescent, 8% of the Moon is Illuminated
Today
Waning Crescent
Sep 24
New
Oct 1
First Quarter
Oct 8
Full
Oct 15
Last Quarter

Today's Extremes

State Highs State Lows

Community

WunderPhotos

Upload Photos

1,755,101 photos uploaded!

Nearby

Snow Depth

Station Depth Elevation
No new snow has been reported.

Earthquake Activity

City Distance Mag. Time & Date
Medford, Oklahoma 159 miles 3.2 2:10 AM CDT
2014-09-20
Luther, Oklahoma 75 miles 2.7 4:47 PM CDT
2014-09-19
Guthrie, Oklahoma 95 miles 3.6 12:23 PM CDT
2014-09-19
Jones, Oklahoma 78 miles 2.8 1:13 AM CDT
2014-09-19
Minimum magnitude displayed is 2.5.

Coastal Water Temperatures

Place Temperature
No Stations Reporting

Nearby Weather Stations